createdAt,value
2022-12-19T00:01:53.734Z,-1.56
2022-12-19T00:04:21.303Z,-1.60
2022-12-19T00:06:48.161Z,-1.64
2022-12-19T00:09:15.207Z,-1.60
2022-12-19T00:11:42.297Z,-1.57
2022-12-19T00:14:11.428Z,-1.57
2022-12-19T00:16:38.403Z,-1.53
2022-12-19T00:19:08.406Z,-1.55
2022-12-19T00:21:35.631Z,-1.53
2022-12-19T00:24:14.523Z,-1.54
2022-12-19T00:26:49.653Z,-1.51
2022-12-19T00:29:17.175Z,-1.51
2022-12-19T00:31:44.099Z,-1.54
2022-12-19T00:34:11.195Z,-1.61
2022-12-19T00:36:38.132Z,-1.57
2022-12-19T00:39:08.539Z,-1.51
2022-12-19T00:41:41.838Z,-1.51
2022-12-19T00:44:16.104Z,-1.48
2022-12-19T00:46:43.879Z,-1.50
2022-12-19T00:49:17.893Z,-1.56
2022-12-19T00:51:47.295Z,-1.54
2022-12-19T00:54:16.626Z,-1.51
2022-12-19T00:56:43.848Z,-1.63
2022-12-19T00:59:10.790Z,-1.55
2022-12-19T01:01:40.426Z,-1.54
2022-12-19T01:04:30.766Z,-1.45
2022-12-19T01:07:01.566Z,-1.47
2022-12-19T01:09:30.265Z,-1.46
2022-12-19T01:12:15.651Z,-1.41
2022-12-19T01:14:42.726Z,-1.40
2022-12-19T01:17:09.569Z,-1.39
2022-12-19T01:19:41.876Z,-1.49
2022-12-19T01:22:11.206Z,-1.37
2022-12-19T01:24:38.318Z,-1.37
2022-12-19T01:27:05.254Z,-1.37
2022-12-19T01:29:33.733Z,-1.33
2022-12-19T01:32:03.807Z,-1.32
2022-12-19T01:34:30.873Z,-1.32
2022-12-19T01:36:57.717Z,-1.31
2022-12-19T01:39:24.599Z,-1.36
2022-12-19T01:41:54.329Z,-1.35
2022-12-19T01:44:25.214Z,-1.39
2022-12-19T01:46:57.746Z,-1.37
2022-12-19T01:49:33.712Z,-1.39
2022-12-19T01:52:04.920Z,-1.36
2022-12-19T01:54:35.988Z,-1.34
2022-12-19T01:57:06.231Z,-1.34
2022-12-19T01:59:38.639Z,-1.34
2022-12-19T02:02:17.742Z,-1.40
2022-12-19T02:04:46.113Z,-1.32
2022-12-19T02:07:16.574Z,-1.35
2022-12-19T02:09:56.530Z,-1.29
2022-12-19T02:12:25.667Z,-1.31
2022-12-19T02:14:54.124Z,-1.30
2022-12-19T02:17:35.516Z,-1.31
2022-12-19T02:20:43.646Z,-1.29
2022-12-19T02:23:34.709Z,-1.24
2022-12-19T02:26:26.321Z,-1.27
2022-12-19T02:29:02.428Z,-1.27
2022-12-19T02:31:31.114Z,-1.27
2022-12-19T02:34:09.859Z,-1.29
2022-12-19T02:36:40.472Z,-1.33
2022-12-19T02:39:51.768Z,-1.30
2022-12-19T02:42:31.944Z,-1.32
2022-12-19T02:45:01.331Z,-1.33
2022-12-19T02:47:31.458Z,-1.32
2022-12-19T02:49:58.515Z,-1.35
2022-12-19T02:52:25.301Z,-1.39
2022-12-19T02:54:56.188Z,-1.40
2022-12-19T02:57:49.885Z,-1.51
2022-12-19T03:00:23.216Z,-1.34
2022-12-19T03:03:01.167Z,-1.35
2022-12-19T03:05:36.725Z,-1.38
2022-12-19T03:08:22.315Z,-1.31
2022-12-19T03:11:01.191Z,-1.33
2022-12-19T03:13:35.347Z,-1.46
2022-12-19T03:16:04.087Z,-1.39
2022-12-19T03:18:33.262Z,-1.34
2022-12-19T03:21:13.233Z,-1.34
2022-12-19T03:23:41.218Z,-1.32
2022-12-19T03:26:16.653Z,-1.37
2022-12-19T03:28:54.426Z,-1.33
2022-12-19T03:31:27.231Z,-1.30
2022-12-19T03:34:01.338Z,-1.30
2022-12-19T03:36:33.904Z,-1.33
2022-12-19T03:39:03.266Z,-1.33
2022-12-19T03:41:50.245Z,-1.36
2022-12-19T03:44:19.237Z,-1.40
2022-12-19T03:47:06.048Z,-1.44
2022-12-19T03:49:33.573Z,-1.40
2022-12-19T03:52:13.871Z,-1.42
2022-12-19T03:54:45.792Z,-1.44
2022-12-19T03:57:25.250Z,-1.41
2022-12-19T03:59:58.250Z,-1.36
2022-12-19T04:02:26.274Z,-1.41
2022-12-19T04:05:02.398Z,-1.37
2022-12-19T04:07:29.931Z,-1.44
2022-12-19T04:09:59.362Z,-1.46
2022-12-19T04:12:33.350Z,-1.43
2022-12-19T04:15:00.407Z,-1.42
2022-12-19T04:17:42.396Z,-1.40
2022-12-19T04:20:24.871Z,-1.37
2022-12-19T04:22:51.859Z,-1.33
2022-12-19T04:25:29.248Z,-1.34
2022-12-19T04:28:10.091Z,-1.37
2022-12-19T04:30:39.958Z,-1.33
2022-12-19T04:33:07.855Z,-1.42
2022-12-19T04:35:35.312Z,-1.40
2022-12-19T04:38:02.774Z,-1.41
2022-12-19T04:40:30.124Z,-1.38
2022-12-19T04:42:58.450Z,-1.37
2022-12-19T04:45:25.269Z,-1.41
2022-12-19T04:47:52.521Z,-1.31
2022-12-19T04:50:19.383Z,-1.33
2022-12-19T04:52:46.159Z,-1.28
2022-12-19T04:55:13.028Z,-1.24
2022-12-19T04:57:39.772Z,-1.23
2022-12-19T05:00:08.736Z,-1.20
2022-12-19T05:02:36.049Z,-1.22
2022-12-19T05:05:03.186Z,-1.21
2022-12-19T05:07:30.242Z,-1.14
2022-12-19T05:09:57.143Z,-1.10
2022-12-19T05:12:23.981Z,-1.17
2022-12-19T05:14:50.835Z,-1.15
2022-12-19T05:17:17.669Z,-1.15
2022-12-19T05:19:44.622Z,-1.15
2022-12-19T05:22:11.458Z,-1.12
2022-12-19T05:24:38.369Z,-1.08
2022-12-19T05:27:05.264Z,-1.09
2022-12-19T05:29:32.154Z,-1.22
2022-12-19T05:31:59.012Z,-1.11
2022-12-19T05:34:26.111Z,-1.16
2022-12-19T05:36:52.969Z,-1.16
2022-12-19T05:39:20.112Z,-1.09
2022-12-19T05:41:49.204Z,-1.09
2022-12-19T05:44:16.607Z,-1.19
2022-12-19T05:46:43.521Z,-1.12
2022-12-19T05:49:10.393Z,-1.07
2022-12-19T05:51:37.745Z,-1.12
2022-12-19T05:54:04.838Z,-1.09
2022-12-19T05:56:31.769Z,-1.11
2022-12-19T05:58:58.605Z,-1.12
2022-12-19T06:01:27.645Z,-1.12
2022-12-19T06:03:55.306Z,-1.19
2022-12-19T06:06:25.481Z,-1.14
2022-12-19T06:08:58.873Z,-1.12
2022-12-19T06:11:26.993Z,-1.14
2022-12-19T06:13:54.037Z,-1.18
2022-12-19T06:16:22.654Z,-1.15
2022-12-19T06:18:49.562Z,-1.10
2022-12-19T06:21:18.941Z,-1.11
2022-12-19T06:23:46.564Z,-1.05
2022-12-19T06:26:19.548Z,-1.09
2022-12-19T06:28:51.831Z,-1.16
2022-12-19T06:31:23.695Z,-1.14
2022-12-19T06:33:52.086Z,-1.18
2022-12-19T06:36:22.709Z,-1.12
2022-12-19T06:38:50.784Z,-1.16
2022-12-19T06:41:37.673Z,-1.11
2022-12-19T06:44:07.434Z,-1.06
2022-12-19T06:46:35.280Z,-1.07
2022-12-19T06:49:02.230Z,-1.13
2022-12-19T06:51:29.263Z,-1.06
2022-12-19T06:53:56.360Z,-1.04
2022-12-19T06:56:23.830Z,-1.04
2022-12-19T06:58:50.903Z,-1.12
2022-12-19T07:01:29.419Z,-1.15
2022-12-19T07:03:56.636Z,-1.14
2022-12-19T07:06:23.933Z,-1.08
2022-12-19T07:08:50.841Z,-1.10
2022-12-19T07:11:17.849Z,-1.05
2022-12-19T07:13:44.678Z,-1.05
2022-12-19T07:16:11.585Z,-1.00
2022-12-19T07:18:40.301Z,-1.04
2022-12-19T07:21:11.309Z,-0.97
2022-12-19T07:23:39.233Z,-0.94
2022-12-19T07:26:06.278Z,-0.99
2022-12-19T07:28:34.390Z,-1.10
2022-12-19T07:31:01.618Z,-0.99
2022-12-19T07:33:28.477Z,-1.00
2022-12-19T07:35:55.281Z,-1.02
2022-12-19T07:38:22.112Z,-1.03
2022-12-19T07:40:48.897Z,-1.06
2022-12-19T07:43:15.979Z,-1.07
2022-12-19T07:45:42.930Z,-1.03
2022-12-19T07:48:10.250Z,-1.13
2022-12-19T07:50:37.179Z,-1.15
2022-12-19T07:53:04.106Z,-1.12
2022-12-19T07:55:30.930Z,-1.17
2022-12-19T07:57:59.661Z,-1.29
2022-12-19T08:00:26.608Z,-1.17
2022-12-19T08:02:53.585Z,-1.14
2022-12-19T08:05:20.506Z,-1.33
2022-12-19T08:07:47.458Z,-1.15
2022-12-19T08:10:15.153Z,-1.22
2022-12-19T08:12:42.203Z,-1.16
2022-12-19T08:15:09.763Z,-1.18
2022-12-19T08:17:41.445Z,-1.07
2022-12-19T08:20:11.383Z,-1.13
2022-12-19T08:22:38.303Z,-1.04
2022-12-19T08:25:07.201Z,-0.88
2022-12-19T08:27:34.960Z,-0.75
2022-12-19T08:30:02.096Z,-0.56
2022-12-19T08:32:29.097Z,-0.54
2022-12-19T08:34:56.759Z,-0.33
2022-12-19T08:37:23.626Z,-0.40
2022-12-19T08:39:50.436Z,-0.59
2022-12-19T08:42:17.552Z,-0.52
2022-12-19T08:44:44.361Z,0.01
2022-12-19T08:47:11.257Z,0.30
2022-12-19T08:49:38.138Z,0.01
2022-12-19T08:52:04.971Z,0.58
2022-12-19T08:54:31.990Z,0.90
2022-12-19T08:56:58.790Z,0.70
2022-12-19T08:59:30.758Z,0.61
2022-12-19T09:02:02.039Z,0.70
2022-12-19T09:05:46.706Z,0.94
2022-12-19T09:07:17.027Z,1.02
2022-12-19T09:09:44.979Z,1.05
2022-12-19T09:12:13.866Z,1.41
2022-12-19T09:14:40.817Z,1.53
2022-12-19T09:17:07.758Z,1.68
2022-12-19T09:19:36.166Z,1.91
2022-12-19T09:22:03.074Z,1.84
2022-12-19T09:24:29.822Z,1.76
2022-12-19T09:26:56.715Z,1.31
2022-12-19T09:29:24.934Z,1.12
2022-12-19T09:31:56.115Z,1.34
2022-12-19T09:34:38.055Z,1.35
2022-12-19T09:37:17.241Z,0.93
2022-12-19T09:39:48.256Z,0.96
2022-12-19T09:42:27.226Z,0.37
2022-12-19T09:44:59.388Z,0.57
2022-12-19T09:47:33.641Z,0.50
2022-12-19T09:50:02.599Z,0.56
2022-12-19T09:52:42.515Z,0.41
2022-12-19T09:55:24.472Z,0.59
2022-12-19T09:58:18.704Z,0.68
2022-12-19T10:00:55.940Z,0.71
2022-12-19T10:03:30.480Z,0.62
2022-12-19T10:07:08.762Z,0.46
2022-12-19T10:10:12.892Z,0.14
2022-12-19T10:12:43.722Z,0.15
2022-12-19T10:15:19.164Z,0.18
2022-12-19T10:18:02.255Z,0.19
2022-12-19T10:20:45.037Z,0.46
2022-12-19T10:23:26.533Z,0.56
2022-12-19T10:26:14.832Z,0.82
2022-12-19T10:28:44.953Z,0.95
2022-12-19T10:31:21.593Z,1.29
2022-12-19T10:34:02.915Z,0.64
2022-12-19T10:37:04.693Z,1.02
2022-12-19T10:39:31.815Z,1.19
2022-12-19T10:42:15.741Z,1.32
2022-12-19T10:44:44.862Z,1.01
2022-12-19T10:47:17.227Z,0.98
2022-12-19T10:49:45.109Z,1.13
2022-12-19T10:52:13.247Z,0.64
2022-12-19T10:54:44.102Z,0.74
2022-12-19T10:57:28.538Z,0.69
2022-12-19T11:00:06.576Z,0.57
2022-12-19T11:02:39.783Z,0.74
2022-12-19T11:05:29.327Z,0.75
2022-12-19T11:08:02.060Z,0.72
2022-12-19T11:12:35.536Z,0.99
2022-12-19T11:17:11.722Z,0.93
2022-12-19T11:21:10.983Z,1.01
2022-12-19T11:29:36.450Z,1.01
2022-12-19T11:29:38.302Z,0.95
2022-12-19T11:30:45.318Z,0.69
2022-12-19T11:30:45.509Z,0.81
2022-12-19T11:33:16.967Z,0.47
2022-12-19T11:35:52.911Z,0.51
2022-12-19T11:38:53.013Z,0.56
2022-12-19T11:41:32.604Z,0.78
2022-12-19T11:44:19.684Z,0.87
2022-12-19T11:46:57.094Z,0.83
2022-12-19T11:49:43.342Z,0.99
2022-12-19T11:55:41.922Z,0.78
2022-12-19T11:58:11.599Z,0.62
2022-12-19T12:00:51.208Z,0.42
2022-12-19T12:03:30.308Z,0.48
2022-12-19T12:05:58.561Z,0.29
2022-12-19T12:10:36.904Z,0.31
2022-12-19T12:20:19.903Z,0.14
2022-12-19T12:23:05.743Z,0.03
2022-12-19T12:31:01.729Z,-0.02
2022-12-19T12:31:06.800Z,-0.11
2022-12-19T12:31:40.361Z,0.04
2022-12-19T12:31:48.868Z,-0.02
2022-12-19T12:32:04.345Z,0.07
2022-12-19T12:35:36.475Z,0.16
2022-12-19T12:39:34.029Z,0.26
2022-12-19T12:42:16.248Z,0.12
2022-12-19T12:44:46.511Z,0.13
2022-12-19T12:47:24.374Z,0.09
2022-12-19T12:50:14.562Z,0.08
2022-12-19T12:52:48.443Z,0.19
2022-12-19T12:55:15.401Z,0.10
2022-12-19T12:57:42.259Z,0.08
2022-12-19T13:00:15.483Z,0.11
2022-12-19T13:02:51.600Z,0.06
2022-12-19T13:05:24.551Z,0.17
2022-12-19T13:07:55.205Z,0.23
2022-12-19T13:10:30.813Z,0.07
2022-12-19T13:13:02.166Z,0.06
2022-12-19T13:15:29.095Z,0.18
2022-12-19T13:17:55.971Z,0.19
2022-12-19T13:20:27.737Z,0.25
2022-12-19T13:22:58.367Z,0.28
2022-12-19T13:25:34.577Z,0.34
2022-12-19T13:28:01.699Z,0.26
2022-12-19T13:30:30.376Z,0.10
2022-12-19T13:32:57.926Z,0.14
2022-12-19T13:39:02.864Z,0.13
2022-12-19T13:39:56.519Z,0.04
2022-12-19T13:41:25.020Z,0.02
2022-12-19T13:43:58.677Z,0.10
2022-12-19T13:46:45.703Z,-0.09
2022-12-19T13:49:15.172Z,0.01
2022-12-19T13:51:57.427Z,-0.09
2022-12-19T13:54:24.533Z,-0.21
2022-12-19T13:56:53.428Z,-0.12
2022-12-19T13:59:23.600Z,-0.01
2022-12-19T14:01:53.483Z,-0.02
2022-12-19T14:04:30.193Z,-0.14
2022-12-19T14:07:06.201Z,-0.27
2022-12-19T14:11:26.230Z,-0.15
2022-12-19T14:13:43.628Z,-0.18
2022-12-19T14:15:43.954Z,-0.25
2022-12-19T14:18:42.657Z,-0.35
2022-12-19T14:22:05.226Z,-0.33
2022-12-19T14:24:16.399Z,-0.42
2022-12-19T14:28:20.205Z,-0.45
2022-12-19T14:30:19.394Z,-0.51
2022-12-19T14:33:44.840Z,-0.53
2022-12-19T14:36:05.026Z,-0.59
2022-12-19T14:39:22.433Z,-0.64
2022-12-19T14:41:08.192Z,-0.66
2022-12-19T14:50:42.628Z,-0.70
2022-12-19T14:54:11.220Z,-0.67
2022-12-19T14:54:24.919Z,-0.78
2022-12-19T14:54:34.137Z,-0.75
2022-12-19T14:56:08.239Z,-0.72
2022-12-19T14:58:52.175Z,-0.74
2022-12-19T15:01:28.497Z,-0.77
2022-12-19T15:04:51.952Z,-0.76
2022-12-19T15:07:06.945Z,-0.81
2022-12-19T15:11:03.851Z,-0.85
2022-12-19T15:14:47.391Z,-0.93
2022-12-19T15:16:23.134Z,-1.02
2022-12-19T15:18:51.548Z,-1.15
2022-12-19T15:21:18.365Z,-1.23
2022-12-19T15:23:45.826Z,-1.26
2022-12-19T15:26:16.838Z,-1.28
2022-12-19T15:28:48.468Z,-1.32
2022-12-19T15:31:34.632Z,-1.36
2022-12-19T15:34:36.347Z,-1.37
2022-12-19T15:37:05.055Z,-1.40
2022-12-19T15:39:31.982Z,-1.56
2022-12-19T15:42:00.377Z,-1.49
2022-12-19T15:44:36.755Z,-1.50
2022-12-19T15:47:06.552Z,-1.53
2022-12-19T15:49:35.260Z,-1.54
2022-12-19T15:52:02.998Z,-1.60
2022-12-19T15:57:36.580Z,-1.64
2022-12-19T16:00:15.743Z,-1.69
2022-12-19T16:03:20.991Z,-1.66
2022-12-19T16:05:29.986Z,-1.79
2022-12-19T16:07:58.824Z,-1.71
2022-12-19T16:10:26.521Z,-1.77
2022-12-19T16:12:55.800Z,-1.77
2022-12-19T16:15:29.514Z,-1.79
2022-12-19T16:17:58.215Z,-1.83
2022-12-19T16:20:28.330Z,-1.89
2022-12-19T16:22:55.425Z,-1.81
2022-12-19T16:25:25.355Z,-1.85
2022-12-19T16:27:56.393Z,-1.77
2022-12-19T16:30:27.863Z,-1.76
2022-12-19T16:32:54.794Z,-1.77
2022-12-19T16:35:40.642Z,-1.73
2022-12-19T16:38:11.149Z,-1.67
2022-12-19T16:40:38.507Z,-1.62
2022-12-19T16:43:12.595Z,-1.54
2022-12-19T16:45:39.815Z,-1.49
2022-12-19T16:48:25.235Z,-1.48
2022-12-19T16:50:52.462Z,-1.49
2022-12-19T16:53:19.782Z,-1.39
2022-12-19T16:55:48.851Z,-1.41
2022-12-19T16:58:20.125Z,-1.28
2022-12-19T17:00:47.791Z,-1.28
2022-12-19T17:03:41.538Z,-1.24
2022-12-19T17:06:12.838Z,-1.20
2022-12-19T17:08:39.831Z,-1.29
2022-12-19T17:11:11.739Z,-1.21
2022-12-19T17:13:38.831Z,-1.15
2022-12-19T17:16:06.736Z,-1.17
2022-12-19T17:18:37.214Z,-1.13
2022-12-19T17:21:04.369Z,-1.24
2022-12-19T17:23:32.629Z,-1.20
2022-12-19T17:26:00.977Z,-1.11
2022-12-19T17:28:29.363Z,-1.14
2022-12-19T17:30:59.374Z,-1.08
2022-12-19T17:33:34.137Z,-1.11
2022-12-19T17:36:02.165Z,-1.14
2022-12-19T17:38:29.418Z,-1.07
2022-12-19T17:40:56.413Z,-1.08
2022-12-19T17:43:23.315Z,-1.09
2022-12-19T17:45:51.123Z,-1.04
2022-12-19T17:48:31.257Z,-1.10
2022-12-19T17:50:59.250Z,-1.05
2022-12-19T17:53:26.440Z,-1.09
2022-12-19T17:55:53.484Z,-1.03
2022-12-19T17:58:21.806Z,-1.08
2022-12-19T18:00:50.022Z,-1.05
2022-12-19T18:03:25.854Z,-1.08
2022-12-19T18:05:55.383Z,-1.00
2022-12-19T18:08:30.940Z,-1.02
2022-12-19T18:11:00.466Z,-1.03
2022-12-19T18:13:28.866Z,-1.06
2022-12-19T18:16:01.437Z,-1.00
2022-12-19T18:18:33.466Z,-0.99
2022-12-19T18:21:02.343Z,-1.03
2022-12-19T18:23:33.077Z,-1.00
2022-12-19T18:26:02.347Z,-0.96
2022-12-19T18:28:30.191Z,-1.00
2022-12-19T18:31:04.584Z,-1.00
2022-12-19T18:33:38.061Z,-1.02
2022-12-19T18:36:06.289Z,-1.16
2022-12-19T18:38:33.575Z,-1.26
2022-12-19T18:41:00.708Z,-1.29
2022-12-19T18:43:27.810Z,-1.19
2022-12-19T18:45:55.163Z,-1.22
2022-12-19T18:48:37.242Z,-1.18
2022-12-19T18:51:06.104Z,-1.25
2022-12-19T18:53:35.728Z,-1.20
2022-12-19T18:56:05.286Z,-1.36
2022-12-19T18:58:32.740Z,-1.14
2022-12-19T19:01:01.439Z,-1.13
2022-12-19T19:03:34.463Z,-1.29
2022-12-19T19:06:01.675Z,-1.20
2022-12-19T19:08:31.668Z,-1.15
2022-12-19T19:11:00.279Z,-1.12
2022-12-19T19:13:28.207Z,-1.20
2022-12-19T19:15:59.084Z,-1.16
2022-12-19T19:18:32.145Z,-1.17
2022-12-19T19:21:02.285Z,-1.12
2022-12-19T19:23:34.932Z,-1.21
2022-12-19T19:26:02.168Z,-1.17
2022-12-19T19:28:29.044Z,-1.13
2022-12-19T19:30:57.546Z,-1.28
2022-12-19T19:33:30.278Z,-1.25
2022-12-19T19:36:05.992Z,-1.31
2022-12-19T19:38:38.144Z,-1.20
2022-12-19T19:41:05.205Z,-1.19
2022-12-19T19:43:35.327Z,-1.15
2022-12-19T19:46:02.749Z,-1.15
2022-12-19T19:48:31.153Z,-1.33
2022-12-19T19:50:58.117Z,-1.25
2022-12-19T19:53:25.328Z,-1.15
2022-12-19T19:56:01.297Z,-1.26
2022-12-19T19:58:29.750Z,-1.19
2022-12-19T20:00:57.286Z,-1.27
2022-12-19T20:03:24.912Z,-1.28
2022-12-19T20:06:00.371Z,-1.29
2022-12-19T20:08:30.963Z,-1.33
2022-12-19T20:11:01.120Z,-1.32
2022-12-19T20:13:31.862Z,-1.21
2022-12-19T20:16:09.995Z,-1.34
2022-12-19T20:18:38.773Z,-1.29
2022-12-19T20:21:13.459Z,-1.25
2022-12-19T20:23:42.931Z,-1.21
2022-12-19T20:26:11.823Z,-1.17
2022-12-19T20:28:45.873Z,-1.14
2022-12-19T20:31:15.205Z,-1.23
2022-12-19T20:33:42.522Z,-1.19
2022-12-19T20:36:13.519Z,-1.16
2022-12-19T20:38:41.237Z,-1.25
2022-12-19T20:41:09.141Z,-1.22
2022-12-19T20:43:37.696Z,-1.29
2022-12-19T20:46:07.117Z,-1.20
2022-12-19T20:48:34.520Z,-1.19
2022-12-19T20:51:02.576Z,-1.17
2022-12-19T20:53:29.455Z,-1.15
2022-12-19T20:55:59.427Z,-1.15
2022-12-19T20:58:28.268Z,-1.13
2022-12-19T21:00:56.619Z,-1.19
2022-12-19T21:03:29.453Z,-1.19
2022-12-19T21:05:57.117Z,-1.20
2022-12-19T21:08:25.697Z,-1.18
2022-12-19T21:10:55.706Z,-1.19
2022-12-19T21:13:23.634Z,-1.16
2022-12-19T21:15:55.067Z,-1.21
2022-12-19T21:18:22.750Z,-1.23
2022-12-19T21:20:50.235Z,-1.17
2022-12-19T21:23:17.469Z,-1.14
2022-12-19T21:25:44.968Z,-1.13
2022-12-19T21:28:11.786Z,-1.19
2022-12-19T21:30:38.689Z,-1.23
2022-12-19T21:33:05.548Z,-1.29
2022-12-19T21:35:34.253Z,-1.25
2022-12-19T21:38:02.031Z,-1.23
2022-12-19T21:40:28.996Z,-1.28
2022-12-19T21:42:55.776Z,-1.23
2022-12-19T21:45:22.533Z,-1.21
2022-12-19T21:47:50.370Z,-1.20
2022-12-19T21:50:17.346Z,-1.19
2022-12-19T21:52:44.625Z,-1.11
2022-12-19T21:55:11.483Z,-1.11
2022-12-19T21:57:42.385Z,-1.13
2022-12-19T22:00:13.563Z,-1.11
2022-12-19T22:02:55.374Z,-1.18
2022-12-19T22:05:27.247Z,-1.12
2022-12-19T22:07:54.059Z,-1.08
2022-12-19T22:10:21.467Z,-1.08
2022-12-19T22:12:48.525Z,-1.08
2022-12-19T22:15:15.412Z,-1.21
2022-12-19T22:17:43.884Z,-1.16
2022-12-19T22:20:11.100Z,-1.19
2022-12-19T22:22:38.257Z,-1.18
2022-12-19T22:25:05.591Z,-1.19
2022-12-19T22:27:32.510Z,-1.18
2022-12-19T22:30:02.248Z,-1.23
2022-12-19T22:32:33.734Z,-1.19
2022-12-19T22:35:00.639Z,-1.13
2022-12-19T22:37:27.448Z,-1.09
2022-12-19T22:40:00.265Z,-1.16
2022-12-19T22:42:27.944Z,-1.18
2022-12-19T22:44:54.749Z,-1.18
2022-12-19T22:47:21.718Z,-1.17
2022-12-19T22:49:51.070Z,-1.16
2022-12-19T22:52:18.401Z,-1.21
2022-12-19T22:54:45.209Z,-1.28
2022-12-19T22:57:12.137Z,-1.34
2022-12-19T22:59:39.886Z,-1.33
2022-12-19T23:02:07.021Z,-1.27
2022-12-19T23:04:35.057Z,-1.32
2022-12-19T23:07:02.239Z,-1.34
2022-12-19T23:09:29.111Z,-1.28
2022-12-19T23:11:55.942Z,-1.26
2022-12-19T23:14:22.781Z,-1.20
2022-12-19T23:16:49.781Z,-1.21
2022-12-19T23:19:17.089Z,-1.23
2022-12-19T23:21:44.354Z,-1.22
2022-12-19T23:24:12.281Z,-1.19
2022-12-19T23:26:39.800Z,-1.22
2022-12-19T23:29:13.067Z,-1.25
2022-12-19T23:31:41.920Z,-1.29
2022-12-19T23:34:08.862Z,-1.25
2022-12-19T23:37:09.532Z,-1.24
2022-12-19T23:39:22.700Z,-1.27
2022-12-19T23:41:49.643Z,-1.32
2022-12-19T23:44:16.556Z,-1.31
2022-12-19T23:46:43.427Z,-1.28
2022-12-19T23:49:10.375Z,-1.30
2022-12-19T23:51:37.519Z,-1.31
2022-12-19T23:54:04.465Z,-1.35
2022-12-19T23:56:32.771Z,-1.31
2022-12-19T23:58:59.715Z,-1.34
